createdAt,value
2023-05-05T00:01:11.583Z,8.80
2023-05-05T00:03:38.098Z,8.78
2023-05-05T00:06:05.524Z,8.73
2023-05-05T00:08:32.111Z,8.67
2023-05-05T00:10:58.663Z,8.67
2023-05-05T00:13:25.297Z,8.65
2023-05-05T00:15:53.547Z,8.63
2023-05-05T00:18:20.983Z,8.58
2023-05-05T00:20:48.125Z,8.58
2023-05-05T00:23:15.991Z,8.56
2023-05-05T00:25:42.550Z,8.51
2023-05-05T00:28:09.037Z,8.46
2023-05-05T00:30:37.218Z,8.42
2023-05-05T00:33:03.860Z,8.35
2023-05-05T00:35:30.528Z,8.33
2023-05-05T00:37:57.037Z,8.35
2023-05-05T00:40:25.042Z,8.31
2023-05-05T00:42:52.157Z,8.22
2023-05-05T00:45:20.287Z,8.18
2023-05-05T00:47:51.139Z,8.19
2023-05-05T00:50:26.358Z,8.16
2023-05-05T00:52:54.520Z,8.12
2023-05-05T00:55:21.583Z,8.10
2023-05-05T00:57:49.480Z,8.09
2023-05-05T01:00:16.716Z,8.06
2023-05-05T01:02:44.039Z,8.05
2023-05-05T01:05:11.474Z,8.07
2023-05-05T01:07:43.696Z,8.03
2023-05-05T01:10:23.741Z,7.98
2023-05-05T01:12:53.131Z,7.96
2023-05-05T01:15:33.404Z,7.91
2023-05-05T01:18:24.223Z,7.91
2023-05-05T01:20:57.591Z,7.88
2023-05-05T01:23:43.145Z,7.85
2023-05-05T01:26:24.429Z,7.83
2023-05-05T01:29:07.715Z,7.80
2023-05-05T01:31:43.859Z,7.79
2023-05-05T01:34:16.109Z,7.77
2023-05-05T01:36:49.365Z,7.80
2023-05-05T01:39:18.361Z,7.73
2023-05-05T01:41:51.016Z,7.68
2023-05-05T01:44:19.834Z,7.69
2023-05-05T01:46:48.752Z,7.63
2023-05-05T01:49:16.281Z,7.62
2023-05-05T01:51:45.774Z,7.60
2023-05-05T01:54:15.105Z,7.59
2023-05-05T01:56:43.246Z,7.56
2023-05-05T01:59:10.395Z,7.56
2023-05-05T02:01:41.300Z,7.54
2023-05-05T02:04:09.760Z,7.52
2023-05-05T02:06:39.194Z,7.47
2023-05-05T02:09:08.276Z,7.44
2023-05-05T02:11:34.836Z,7.41
2023-05-05T02:14:02.257Z,7.42
2023-05-05T02:16:31.039Z,7.39
2023-05-05T02:19:01.156Z,7.39
2023-05-05T02:21:28.515Z,7.37
2023-05-05T02:23:55.601Z,7.33
2023-05-05T02:26:24.113Z,7.32
2023-05-05T02:29:03.886Z,7.23
2023-05-05T02:31:33.048Z,7.30
2023-05-05T02:34:01.954Z,7.24
2023-05-05T02:36:32.485Z,7.18
2023-05-05T02:39:07.194Z,7.23
2023-05-05T02:41:38.070Z,7.20
2023-05-05T02:44:06.631Z,7.22
2023-05-05T02:46:33.614Z,7.18
2023-05-05T02:49:00.219Z,7.17
2023-05-05T02:51:27.597Z,7.07
2023-05-05T02:53:54.418Z,7.09
2023-05-05T02:56:48.881Z,7.14
2023-05-05T02:59:19.414Z,7.13
2023-05-05T03:02:08.070Z,7.09
2023-05-05T03:04:46.959Z,7.08
2023-05-05T03:07:21.907Z,7.04
2023-05-05T03:10:09.201Z,7.04
2023-05-05T03:13:01.577Z,7.04
2023-05-05T03:15:34.200Z,7.01
2023-05-05T03:18:03.070Z,7.00
2023-05-05T03:20:30.398Z,6.99
2023-05-05T03:22:57.146Z,6.98
2023-05-05T03:25:41.448Z,6.95
2023-05-05T03:28:07.912Z,6.96
2023-05-05T03:30:34.676Z,6.99
2023-05-05T03:33:01.404Z,6.98
2023-05-05T03:35:28.280Z,6.94
2023-05-05T03:37:55.676Z,6.95
2023-05-05T03:40:36.358Z,6.96
2023-05-05T03:43:09.864Z,6.93
2023-05-05T03:45:36.368Z,6.94
2023-05-05T03:48:03.059Z,6.92
2023-05-05T03:50:29.583Z,6.94
2023-05-05T03:52:56.127Z,6.92
2023-05-05T03:55:22.700Z,6.91
2023-05-05T03:57:49.185Z,6.87
2023-05-05T04:00:16.910Z,6.94
2023-05-05T04:02:43.535Z,6.92
2023-05-05T04:05:10.205Z,6.92
2023-05-05T04:07:36.683Z,6.93
2023-05-05T04:10:03.741Z,6.90
2023-05-05T04:12:30.295Z,6.89
2023-05-05T04:14:56.877Z,6.94
2023-05-05T04:17:23.364Z,6.94
2023-05-05T04:19:49.820Z,6.94
2023-05-05T04:22:16.647Z,6.98
2023-05-05T04:24:43.127Z,6.94
2023-05-05T04:27:09.674Z,7.00
2023-05-05T04:29:36.149Z,7.02
2023-05-05T04:32:02.636Z,7.07
2023-05-05T04:34:30.453Z,7.13
2023-05-05T04:36:57.113Z,7.17
2023-05-05T04:39:23.574Z,7.22
2023-05-05T04:41:50.061Z,7.28
2023-05-05T04:44:17.240Z,7.37
2023-05-05T04:46:44.798Z,7.47
2023-05-05T04:49:11.435Z,7.51
2023-05-05T04:51:41.454Z,7.54
2023-05-05T04:54:08.321Z,7.60
2023-05-05T04:56:34.797Z,7.63
2023-05-05T04:59:01.298Z,7.60
2023-05-05T05:01:27.837Z,7.70
2023-05-05T05:03:54.400Z,7.74
2023-05-05T05:06:21.022Z,7.79
2023-05-05T05:08:47.560Z,7.84
2023-05-05T05:11:14.087Z,7.86
2023-05-05T05:13:41.536Z,7.86
2023-05-05T05:16:08.142Z,7.95
2023-05-05T05:18:34.649Z,7.98
2023-05-05T05:21:01.363Z,7.96
2023-05-05T05:23:27.844Z,8.03
2023-05-05T05:25:54.529Z,8.08
2023-05-05T05:28:21.041Z,8.19
2023-05-05T05:30:47.712Z,8.25
2023-05-05T05:33:14.510Z,8.40
2023-05-05T05:35:41.276Z,8.52
2023-05-05T05:38:07.943Z,8.68
2023-05-05T05:40:34.437Z,8.76
2023-05-05T05:43:01.052Z,8.85
2023-05-05T05:45:27.555Z,8.96
2023-05-05T05:47:54.184Z,8.99
2023-05-05T05:50:21.405Z,8.95
2023-05-05T05:52:47.921Z,8.92
2023-05-05T05:55:14.393Z,8.90
2023-05-05T05:57:40.867Z,8.87
2023-05-05T06:00:08.126Z,8.88
2023-05-05T06:02:34.919Z,8.85
2023-05-05T06:05:01.476Z,8.97
2023-05-05T06:07:28.033Z,9.02
2023-05-05T06:09:54.529Z,9.06
2023-05-05T06:12:21.065Z,9.07
2023-05-05T06:14:47.545Z,9.10
2023-05-05T06:17:14.007Z,9.04
2023-05-05T06:19:41.012Z,9.11
2023-05-05T06:22:07.483Z,9.24
2023-05-05T06:24:34.014Z,9.40
2023-05-05T06:27:00.719Z,9.61
2023-05-05T06:29:28.022Z,9.84
2023-05-05T06:31:55.066Z,10.08
2023-05-05T06:34:21.585Z,10.08
2023-05-05T06:36:48.204Z,10.19
2023-05-05T06:39:15.902Z,10.25
2023-05-05T06:41:42.779Z,10.32
2023-05-05T06:44:10.540Z,10.43
2023-05-05T06:46:37.179Z,10.49
2023-05-05T06:49:03.763Z,10.52
2023-05-05T06:51:31.237Z,10.40
2023-05-05T06:53:57.751Z,10.43
2023-05-05T06:56:24.220Z,10.45
2023-05-05T06:58:50.704Z,10.35
2023-05-05T07:01:17.259Z,10.34
2023-05-05T07:03:44.715Z,10.25
2023-05-05T07:06:11.277Z,10.28
2023-05-05T07:08:37.767Z,10.32
2023-05-05T07:11:04.299Z,10.40
2023-05-05T07:13:30.800Z,10.43
2023-05-05T07:15:57.412Z,10.44
2023-05-05T07:18:23.926Z,10.50
2023-05-05T07:20:50.413Z,10.53
2023-05-05T07:23:17.061Z,10.58
2023-05-05T07:25:43.907Z,10.59
2023-05-05T07:28:10.878Z,10.65
2023-05-05T07:30:37.344Z,10.61
2023-05-05T07:33:03.984Z,10.63
2023-05-05T07:35:30.915Z,10.63
2023-05-05T07:37:57.797Z,10.63
2023-05-05T07:40:24.633Z,10.69
2023-05-05T07:42:51.747Z,10.73
2023-05-05T07:45:18.615Z,10.72
2023-05-05T07:47:45.432Z,10.79
2023-05-05T07:50:12.286Z,10.91
2023-05-05T07:55:08.761Z,11.11
2023-05-05T07:57:35.468Z,11.16
2023-05-05T08:00:02.350Z,11.21
2023-05-05T08:02:29.170Z,11.29
2023-05-05T08:04:55.904Z,11.42
2023-05-05T08:07:22.941Z,11.50
2023-05-05T08:09:49.614Z,11.62
2023-05-05T08:12:18.965Z,11.89
2023-05-05T08:14:45.724Z,12.06
2023-05-05T08:17:12.190Z,12.22
2023-05-05T08:19:38.796Z,12.36
2023-05-05T08:22:05.278Z,12.62
2023-05-05T08:24:31.736Z,12.86
2023-05-05T08:26:58.323Z,12.91
2023-05-05T08:29:24.816Z,12.88
2023-05-05T08:31:51.694Z,12.97
2023-05-05T08:34:18.285Z,13.25
2023-05-05T08:36:44.788Z,13.33
2023-05-05T08:39:11.531Z,13.52
2023-05-05T08:41:38.009Z,13.74
2023-05-05T08:44:04.548Z,13.80
2023-05-05T08:46:31.401Z,13.94
2023-05-05T08:48:58.759Z,13.91
2023-05-05T08:51:28.428Z,13.90
2023-05-05T08:53:57.869Z,13.83
2023-05-05T08:56:38.804Z,13.91
2023-05-05T08:59:05.371Z,13.86
2023-05-05T09:01:33.140Z,13.83
2023-05-05T09:03:59.997Z,13.69
2023-05-05T09:06:27.414Z,13.72
2023-05-05T09:08:54.095Z,13.81
2023-05-05T09:11:21.569Z,13.97
2023-05-05T09:13:48.344Z,14.21
2023-05-05T09:16:14.947Z,14.41
2023-05-05T09:18:42.601Z,14.47
2023-05-05T09:21:24.585Z,14.47
2023-05-05T09:24:08.594Z,14.52
2023-05-05T09:26:37.929Z,14.58
2023-05-05T09:29:05.804Z,14.49
2023-05-05T09:31:33.975Z,14.53
2023-05-05T09:34:00.916Z,14.44
2023-05-05T09:36:43.305Z,14.35
2023-05-05T09:39:10.094Z,14.34
2023-05-05T09:41:37.904Z,14.43
2023-05-05T09:44:04.574Z,14.34
2023-05-05T09:46:31.331Z,14.25
2023-05-05T09:49:12.326Z,14.19
2023-05-05T09:51:39.059Z,14.11
2023-05-05T09:54:05.542Z,14.10
2023-05-05T09:56:41.182Z,14.11
2023-05-05T09:59:08.909Z,14.05
2023-05-05T10:01:35.448Z,14.12
2023-05-05T10:04:02.200Z,14.12
2023-05-05T10:06:44.218Z,14.08
2023-05-05T10:09:11.000Z,14.01
2023-05-05T10:11:40.418Z,14.11
2023-05-05T10:14:07.840Z,14.11
2023-05-05T10:16:36.009Z,14.19
2023-05-05T10:19:04.168Z,14.22
2023-05-05T10:21:37.432Z,14.32
2023-05-05T10:24:11.682Z,14.46
2023-05-05T10:26:41.460Z,14.58
2023-05-05T10:29:23.300Z,14.68
2023-05-05T10:31:52.544Z,14.73
2023-05-05T10:34:40.645Z,14.80
2023-05-05T10:37:07.578Z,14.86
2023-05-05T10:39:37.742Z,14.90
2023-05-05T10:42:04.763Z,14.97
2023-05-05T10:44:34.785Z,15.01
2023-05-05T10:47:01.976Z,15.06
2023-05-05T10:49:54.925Z,15.26
2023-05-05T10:52:30.398Z,15.29
2023-05-05T10:55:12.842Z,15.20
2023-05-05T10:57:44.261Z,15.10
2023-05-05T11:00:36.832Z,15.12
2023-05-05T11:03:18.513Z,15.18
2023-05-05T11:06:03.810Z,15.22
2023-05-05T11:08:32.581Z,15.15
2023-05-05T11:10:59.821Z,15.16
2023-05-05T11:13:27.129Z,15.03
2023-05-05T11:15:55.975Z,14.79
2023-05-05T11:18:36.141Z,14.71
2023-05-05T11:21:15.655Z,14.61
2023-05-05T11:23:47.030Z,14.53
2023-05-05T11:26:15.261Z,14.51
2023-05-05T11:28:56.679Z,14.52
2023-05-05T11:31:23.248Z,14.55
2023-05-05T11:33:49.865Z,14.57
2023-05-05T11:36:18.411Z,14.58
2023-05-05T11:39:09.120Z,14.64
2023-05-05T11:42:25.513Z,14.63
2023-05-05T11:44:52.789Z,14.60
2023-05-05T11:47:19.190Z,14.61
2023-05-05T11:49:45.806Z,14.66
2023-05-05T11:52:14.571Z,14.72
2023-05-05T11:54:50.021Z,14.88
2023-05-05T11:57:21.048Z,14.97
2023-05-05T11:59:55.198Z,15.10
2023-05-05T12:02:22.767Z,15.36
2023-05-05T12:04:49.767Z,15.69
2023-05-05T12:07:17.822Z,15.90
2023-05-05T12:09:45.950Z,15.92
2023-05-05T12:12:13.801Z,15.96
2023-05-05T12:14:54.762Z,16.02
2023-05-05T12:17:25.659Z,16.06
2023-05-05T12:19:57.604Z,16.13
2023-05-05T12:22:25.681Z,16.18
2023-05-05T12:24:57.234Z,16.19
2023-05-05T12:27:24.687Z,16.14
2023-05-05T12:29:51.905Z,16.15
2023-05-05T12:32:21.031Z,16.11
2023-05-05T12:34:48.511Z,16.03
2023-05-05T12:37:16.811Z,16.06
2023-05-05T12:39:43.281Z,16.20
2023-05-05T12:42:09.869Z,16.30
2023-05-05T12:44:40.084Z,16.39
2023-05-05T12:47:07.078Z,16.54
2023-05-05T12:49:50.087Z,16.55
2023-05-05T12:52:16.910Z,16.59
2023-05-05T12:54:57.061Z,16.58
2023-05-05T12:57:23.961Z,16.68
2023-05-05T12:59:51.629Z,16.74
2023-05-05T13:02:18.953Z,16.92
2023-05-05T13:04:53.338Z,17.05
2023-05-05T13:07:21.771Z,17.13
2023-05-05T13:09:49.798Z,17.16
2023-05-05T13:12:21.065Z,17.09
2023-05-05T13:14:48.478Z,17.03
2023-05-05T13:17:15.234Z,17.03
2023-05-05T13:19:42.692Z,17.04
2023-05-05T13:22:13.001Z,17.10
2023-05-05T13:24:50.928Z,17.04
2023-05-05T13:27:19.030Z,17.06
2023-05-05T13:29:45.892Z,17.02
2023-05-05T13:32:12.513Z,16.96
2023-05-05T13:34:39.266Z,16.96
2023-05-05T13:37:06.153Z,16.93
2023-05-05T13:39:32.680Z,16.98
2023-05-05T13:41:59.215Z,17.11
2023-05-05T13:44:25.739Z,17.20
2023-05-05T13:46:52.453Z,17.28
2023-05-05T13:49:20.024Z,17.36
2023-05-05T13:51:46.909Z,17.37
2023-05-05T13:54:13.826Z,17.38
2023-05-05T13:56:40.660Z,17.39
2023-05-05T13:59:07.300Z,17.37
2023-05-05T14:01:33.873Z,17.41
2023-05-05T14:04:03.672Z,17.36
2023-05-05T14:06:32.567Z,17.38
2023-05-05T14:08:59.195Z,17.38
2023-05-05T14:11:25.692Z,17.35
2023-05-05T14:13:52.699Z,17.28
2023-05-05T14:16:19.226Z,17.20
2023-05-05T14:18:45.767Z,17.09
2023-05-05T14:21:12.263Z,17.03
2023-05-05T14:23:38.779Z,16.91
2023-05-05T14:26:05.360Z,16.93
2023-05-05T14:28:31.908Z,16.87
2023-05-05T14:30:58.433Z,16.85
2023-05-05T14:33:24.983Z,16.78
2023-05-05T14:35:51.976Z,16.68
2023-05-05T14:38:18.478Z,16.51
2023-05-05T14:40:45.006Z,16.39
2023-05-05T14:43:11.501Z,16.24
2023-05-05T14:45:38.073Z,16.05
2023-05-05T14:48:04.613Z,15.94
2023-05-05T14:50:31.220Z,15.74
2023-05-05T14:52:57.754Z,15.74
2023-05-05T14:55:24.973Z,15.70
2023-05-05T14:57:51.887Z,15.64
2023-05-05T15:00:18.730Z,15.62
2023-05-05T15:02:45.400Z,15.66
2023-05-05T15:05:12.313Z,15.69
2023-05-05T15:07:39.975Z,15.64
2023-05-05T15:10:07.559Z,15.70
2023-05-05T15:12:34.295Z,15.79
2023-05-05T15:15:00.851Z,15.83
2023-05-05T15:17:27.461Z,15.84
2023-05-05T15:19:54.148Z,15.84
2023-05-05T15:22:20.913Z,15.80
2023-05-05T15:24:47.608Z,15.75
2023-05-05T15:27:14.385Z,15.75
2023-05-05T15:29:41.028Z,15.63
2023-05-05T15:32:07.793Z,15.52
2023-05-05T15:34:34.328Z,15.45
2023-05-05T15:37:01.061Z,15.43
2023-05-05T15:39:27.570Z,15.39
2023-05-05T15:41:54.091Z,15.37
2023-05-05T15:44:20.648Z,15.31
2023-05-05T15:46:49.737Z,15.30
2023-05-05T15:49:16.921Z,15.21
2023-05-05T15:51:43.558Z,15.15
2023-05-05T15:54:11.044Z,15.03
2023-05-05T15:56:37.678Z,15.00
2023-05-05T15:59:04.196Z,15.03
2023-05-05T16:01:30.818Z,15.00
2023-05-05T16:03:57.821Z,14.93
2023-05-05T16:06:24.412Z,14.92
2023-05-05T16:08:51.771Z,14.87
2023-05-05T16:11:19.964Z,14.84
2023-05-05T16:13:47.644Z,14.81
2023-05-05T16:16:14.207Z,14.74
2023-05-05T16:18:40.772Z,14.69
2023-05-05T16:21:07.232Z,14.73
2023-05-05T16:23:33.734Z,14.69
2023-05-05T16:26:00.210Z,14.65
2023-05-05T16:28:26.959Z,14.60
2023-05-05T16:30:53.433Z,14.56
2023-05-05T16:33:19.900Z,14.49
2023-05-05T16:35:46.442Z,14.48
2023-05-05T16:38:13.411Z,14.38
2023-05-05T16:40:40.244Z,14.46
2023-05-05T16:43:06.778Z,14.45
2023-05-05T16:45:33.264Z,14.39
2023-05-05T16:47:59.832Z,14.44
2023-05-05T16:50:26.757Z,14.38
2023-05-05T16:52:53.241Z,14.40
2023-05-05T16:55:19.853Z,14.35
2023-05-05T16:57:47.785Z,14.32
2023-05-05T17:00:14.622Z,14.36
2023-05-05T17:02:41.174Z,14.35
2023-05-05T17:05:08.172Z,14.33
2023-05-05T17:07:35.074Z,14.30
2023-05-05T17:10:01.639Z,14.32
2023-05-05T17:12:28.342Z,14.28
2023-05-05T17:14:54.886Z,14.28
2023-05-05T17:17:21.421Z,14.27
2023-05-05T17:19:47.902Z,14.30
2023-05-05T17:22:14.394Z,14.29
2023-05-05T17:24:40.955Z,14.27
2023-05-05T17:27:07.498Z,14.23
2023-05-05T17:29:40.176Z,14.23
2023-05-05T17:32:07.768Z,14.24
2023-05-05T17:34:34.645Z,14.22
2023-05-05T17:37:01.858Z,14.22
2023-05-05T17:39:28.859Z,14.16
2023-05-05T17:41:55.671Z,14.13
2023-05-05T17:44:22.242Z,14.10
2023-05-05T17:46:48.885Z,14.18
2023-05-05T17:49:16.237Z,14.04
2023-05-05T17:51:42.685Z,14.04
2023-05-05T17:54:09.336Z,13.91
2023-05-05T17:56:36.713Z,13.90
2023-05-05T17:59:03.261Z,13.78
2023-05-05T18:01:29.857Z,13.69
2023-05-05T18:03:57.445Z,13.67
2023-05-05T18:06:23.996Z,13.60
2023-05-05T18:08:50.482Z,13.50
2023-05-05T18:11:17.126Z,13.47
2023-05-05T18:13:43.622Z,13.43
2023-05-05T18:16:10.282Z,13.39
2023-05-05T18:18:36.900Z,13.30
2023-05-05T18:21:03.479Z,13.29
2023-05-05T18:23:29.996Z,13.24
2023-05-05T18:25:56.536Z,13.23
2023-05-05T18:28:23.178Z,13.22
2023-05-05T18:30:49.691Z,13.13
2023-05-05T18:33:16.195Z,13.02
2023-05-05T18:35:42.704Z,12.87
2023-05-05T18:38:09.220Z,12.80
2023-05-05T18:40:35.710Z,12.75
2023-05-05T18:43:02.279Z,12.72
2023-05-05T18:45:28.848Z,12.71
2023-05-05T18:47:56.313Z,12.70
2023-05-05T18:50:23.088Z,12.68
2023-05-05T18:52:49.557Z,12.67
2023-05-05T18:55:16.058Z,12.63
2023-05-05T18:57:42.665Z,12.60
2023-05-05T19:00:10.085Z,12.58
2023-05-05T19:02:36.890Z,12.57
2023-05-05T19:05:03.770Z,12.55
2023-05-05T19:07:35.315Z,12.52
2023-05-05T19:10:04.479Z,12.51
2023-05-05T19:12:31.054Z,12.47
2023-05-05T19:14:57.861Z,12.47
2023-05-05T19:17:25.435Z,12.52
2023-05-05T19:19:52.175Z,12.44
2023-05-05T19:22:20.478Z,12.44
2023-05-05T19:24:47.052Z,12.43
2023-05-05T19:27:16.415Z,12.30
2023-05-05T19:29:43.566Z,12.27
2023-05-05T19:32:10.149Z,12.21
2023-05-05T19:34:36.903Z,12.05
2023-05-05T19:37:03.414Z,12.05
2023-05-05T19:39:30.029Z,11.94
2023-05-05T19:41:56.718Z,11.85
2023-05-05T19:44:23.756Z,11.76
2023-05-05T19:46:51.760Z,11.58
2023-05-05T19:49:18.465Z,11.52
2023-05-05T19:51:47.474Z,11.41
2023-05-05T19:54:14.175Z,11.33
2023-05-05T19:56:40.872Z,11.25
2023-05-05T19:59:07.519Z,11.16
2023-05-05T20:01:34.931Z,11.10
2023-05-05T20:04:03.121Z,10.95
2023-05-05T20:06:29.803Z,10.84
2023-05-05T20:08:56.502Z,10.67
2023-05-05T20:11:23.258Z,10.61
2023-05-05T20:13:50.728Z,10.51
2023-05-05T20:16:17.852Z,10.34
2023-05-05T20:18:44.585Z,10.30
2023-05-05T20:21:11.510Z,10.26
2023-05-05T20:23:38.228Z,10.24
2023-05-05T20:26:05.007Z,10.21
2023-05-05T20:28:31.828Z,10.16
2023-05-05T20:31:00.397Z,10.11
2023-05-05T20:33:28.680Z,10.07
2023-05-05T20:35:55.432Z,10.02
2023-05-05T20:38:22.109Z,9.98
2023-05-05T20:40:49.972Z,9.94
2023-05-05T20:43:16.644Z,9.84
2023-05-05T20:45:43.415Z,9.83
2023-05-05T20:48:11.314Z,9.82
2023-05-05T20:50:38.669Z,9.77
2023-05-05T20:53:07.917Z,9.69
2023-05-05T20:55:34.888Z,9.68
2023-05-05T20:58:01.675Z,9.63
2023-05-05T21:00:28.364Z,9.63
2023-05-05T21:02:56.775Z,9.52
2023-05-05T21:05:24.145Z,9.52
2023-05-05T21:07:53.598Z,9.52
2023-05-05T21:10:20.397Z,9.48
2023-05-05T21:12:47.156Z,9.48
2023-05-05T21:15:13.889Z,9.39
2023-05-05T21:17:40.773Z,9.36
2023-05-05T21:20:08.613Z,9.30
2023-05-05T21:22:35.502Z,9.30
2023-05-05T21:25:12.303Z,9.33
2023-05-05T21:27:39.052Z,9.27
2023-05-05T21:30:08.625Z,9.30
2023-05-05T21:32:39.105Z,9.22
2023-05-05T21:35:07.824Z,9.23
2023-05-05T21:37:36.281Z,9.22
2023-05-05T21:40:03.079Z,9.20
2023-05-05T21:42:30.926Z,9.15
2023-05-05T21:44:57.641Z,9.01
2023-05-05T21:47:24.354Z,9.05
2023-05-05T21:49:51.014Z,9.09
2023-05-05T21:52:17.712Z,9.04
2023-05-05T21:54:44.681Z,9.03
2023-05-05T21:57:11.375Z,9.01
2023-05-05T21:59:38.053Z,8.96
2023-05-05T22:02:04.738Z,8.87
2023-05-05T22:04:31.407Z,8.85
2023-05-05T22:06:58.217Z,8.82
2023-05-05T22:09:24.911Z,8.81
2023-05-05T22:11:51.643Z,8.78
2023-05-05T22:14:18.525Z,8.72
2023-05-05T22:16:45.413Z,8.66
2023-05-05T22:19:12.136Z,8.61
2023-05-05T22:21:39.014Z,8.63
2023-05-05T22:24:07.072Z,8.62
2023-05-05T22:26:34.055Z,8.58
2023-05-05T22:29:00.950Z,8.58
2023-05-05T22:31:29.236Z,8.57
2023-05-05T22:33:56.048Z,8.45
2023-05-05T22:36:22.905Z,8.50
2023-05-05T22:38:49.795Z,8.42
2023-05-05T22:41:16.473Z,8.51
2023-05-05T22:43:43.161Z,8.45
2023-05-05T22:46:10.150Z,8.49
2023-05-05T22:48:36.871Z,8.41
2023-05-05T22:51:03.691Z,8.44
2023-05-05T22:53:30.718Z,8.40
2023-05-05T22:55:58.443Z,8.37
2023-05-05T22:58:25.653Z,8.36
2023-05-05T23:00:52.209Z,8.30
2023-05-05T23:03:18.725Z,8.31
2023-05-05T23:05:45.225Z,8.26
2023-05-05T23:08:11.689Z,8.27
2023-05-05T23:10:38.180Z,8.22
2023-05-05T23:13:04.727Z,8.22
2023-05-05T23:15:31.400Z,8.23
2023-05-05T23:17:57.941Z,8.21
2023-05-05T23:20:24.430Z,8.21
2023-05-05T23:22:50.883Z,8.13
2023-05-05T23:25:17.560Z,8.15
2023-05-05T23:27:44.102Z,8.10
2023-05-05T23:30:11.094Z,8.10
2023-05-05T23:32:37.817Z,8.03
2023-05-05T23:35:04.809Z,8.01
2023-05-05T23:37:31.467Z,7.96
2023-05-05T23:39:58.105Z,7.94
2023-05-05T23:42:24.623Z,7.90
2023-05-05T23:44:51.207Z,7.90
2023-05-05T23:47:17.840Z,7.93
2023-05-05T23:49:44.514Z,7.93
2023-05-05T23:52:11.192Z,7.89
2023-05-05T23:54:37.659Z,7.91
2023-05-05T23:57:04.188Z,7.87
2023-05-05T23:59:30.691Z,7.85
